Latest Weather Observations for Essendon Airport

IDV60901

Issued at 10:31 pm EDT Saturday 25 January 2020 (issued every 10 minutes, with the page automatically refreshed every 10 minutes)

About weather observations | Map of Melbourne area stations | Latest observations for Melbourne area | Other Formats
Station Details ID: 086038 Name: ESSENDON AIRPORT Lat: -37.73 Lon: 144.91 Height: 78.4 m
Data from the previous 72 hours. | See also: Recent months at Essendon Airport
Date/Time
EDT
Temp
°C
App
Temp
°C
Dew
Point
°C
Rel
Hum
%
Delta-T
°C
Wind Press
QNH
hPa
Press
MSL
hPa
Rain since
9am
mm
Dir  Spd
km/h
Gust
km/h
Spd
kts
Gust
kts
25/10:30pm 19.4 17.8 14.0 71 3.1 S 15 20 8 11 1014.0 1013.8 0.0
25/10:00pm 20.0 18.3 13.7 67 3.6 S 15 17 8 9 1013.8 1013.6 0.0
25/09:30pm 20.4 19.6 15.0 71 3.2 SSW 13 19 7 10 1013.4 1013.2 0.0
25/09:00pm 20.6 19.1 15.4 72 3.1 S 17 22 9 12 1013.0 1012.8 0.0
25/08:30pm 21.2 19.1 15.3 69 3.5 S 20 28 11 15 1012.5 1012.3 0.0
25/08:00pm 21.9 19.2 15.7 68 3.7 S 24 33 13 18 1012.1 1011.9 0.0
25/07:30pm 22.8 20.0 15.4 63 4.4 S 24 30 13 16 1011.7 1011.5 0.0
25/07:00pm 23.0 19.5 14.6 59 5.0 S 26 32 14 17 1011.5 1011.3 0.0
25/06:30pm 24.3 19.1 11.6 45 7.2 S 30 39 16 21 1011.2 1011.0 0.0
25/06:00pm 26.5 23.5 10.6 37 9.0 SSE 17 22 9 12 1011.1 1010.9 0.0
25/05:30pm 27.0 23.8 11.9 39 8.7 S 20 26 11 14 1011.4 1011.2 0.0
25/05:00pm 26.8 23.4 10.5 36 9.2 S 19 24 10 13 1011.5 1011.3 0.0
25/04:30pm 27.2 24.1 11.7 38 8.9 S 19 26 10 14 1011.6 1011.4 0.0
25/04:00pm 27.0 24.5 11.1 37 9.1 S 15 22 8 12 1012.0 1011.8 0.0
25/03:30pm 26.6 24.1 12.3 41 8.3 SSE 17 28 9 15 1012.2 1012.0 0.0
25/03:00pm 26.6 23.6 11.9 40 8.5 S 19 26 10 14 1012.4 1012.2 0.0
25/02:30pm 26.4 24.0 11.3 39 8.6 SSE 15 26 8 14 1012.8 1012.6 0.0
25/02:00pm 26.3 24.6 12.4 42 8.1 SSE 13 26 7 14 1012.9 1012.7 0.0
25/01:30pm 26.0 24.4 11.4 40 8.3 SE 11 15 6 8 1013.2 1013.0 0.0
25/01:00pm 25.2 23.6 11.7 43 7.7 SSW 11 19 6 10 1013.4 1013.2 0.0
25/12:30pm 24.5 22.7 9.6 39 8.2 SSW 9 17 5 9 1013.6 1013.4 0.0
25/12:00pm 24.0 21.9 9.9 41 7.7 W 11 20 6 11 1013.8 1013.6 0.0
25/11:30am 23.8 22.4 10.8 44 7.2 N 9 17 5 9 1014.0 1013.8 0.0
25/11:00am 22.8 21.2 10.3 45 6.9 WNW 9 15 5 8 1014.3 1014.1 0.0
25/10:30am 22.8 21.3 11.8 50 6.2 WSW 11 15 6 8 1014.6 1014.4 0.0
25/10:00am 21.8 21.0 11.2 51 5.9 NNW 6 13 3 7 1014.7 1014.5 0.0
25/09:30am 20.9 20.6 11.5 55 5.2 N 4 9 2 5 1015.0 1014.8 0.0
25/09:00am 19.3 18.5 11.1 59 4.5 N 6 9 3 5 1015.2 1014.9 0.0
25/08:30am 18.1 16.6 10.7 62 4.0 N 9 11 5 6 1014.7 1014.5 0.0
25/08:00am 16.4 14.5 10.5 68 3.1 N 11 15 6 8 1014.5 1014.3 0.0
25/07:30am 14.7 12.3 9.9 73 2.5 N 13 15 7 8 1014.3 1014.1 0.0
25/07:00am 13.7 11.9 9.6 76 2.1 NNW 9 11 5 6 1014.1 1013.9 0.0
25/06:30am 13.1 11.3 9.5 79 1.8 NNW 9 13 5 7 1013.9 1013.7 0.0
25/06:00am 13.4 11.2 9.3 76 2.1 NNW 11 13 6 7 1013.7 1013.5 0.0
25/05:30am 14.1 11.5 9.3 73 2.5 NNW 13 15 7 8 1013.5 1013.3 0.0
25/05:00am 14.0 11.0 9.2 73 2.5 NNW 15 17 8 9 1013.5 1013.3 0.0
25/04:30am 13.5 11.4 9.7 78 2.0 N 11 13 6 7 1013.8 1013.6 0.0
25/04:00am 13.8 11.7 9.8 77 2.1 NNW 11 13 6 7 1013.8 1013.6 0.0
25/03:30am 13.9 11.8 9.9 77 2.1 NW 11 11 6 6 1013.8 1013.6 0.0
25/03:00am 14.2 12.5 10.0 76 2.2 NW 9 11 5 6 1013.9 1013.7 0.0
25/02:30am 13.8 12.5 9.8 77 2.1 NW 7 9 4 5 1013.9 1013.7 0.0
25/02:00am 14.2 12.5 9.8 75 2.3 SW 9 13 5 7 1014.0 1013.8 0.0
25/01:30am 15.1 12.7 10.1 72 2.6 N 13 13 7 7 1013.6 1013.4 0.0
25/01:00am 15.6 13.2 9.9 69 3.0 N 13 15 7 8 1013.5 1013.3 0.0
25/12:30am 16.9 14.4 9.8 63 3.7 NNW 13 17 7 9 1013.5 1013.3 0.0
25/12:00am 17.1 15.1 10.0 63 3.8 NW 11 13 6 7 1013.4 1013.2 0.0
 
Date/Time
EDT
Temp
°C
App
Temp
°C
Dew
Point
°C
Rel
Hum
%
Delta-T
°C
Wind Press
QNH
hPa
Press
MSL
hPa
Rain since
9am
mm
Dir  Spd
km/h
Gust
km/h
Spd
kts
Gust
kts
24/11:30pm 18.0 16.2 9.6 58 4.4 NW 9 11 5 6 1013.4 1013.2 0.0
24/11:00pm 18.7 17.5 9.5 55 4.9 W 6 9 3 5 1013.5 1013.3 0.0
24/10:30pm 18.5 17.1 9.6 56 4.7 WSW 7 9 4 5 1013.6 1013.4 0.0
24/10:00pm 18.7 16.6 9.8 56 4.7 WSW 11 15 6 8 1013.4 1013.2 0.0
24/09:30pm 19.0 16.4 9.2 53 5.2 WSW 13 19 7 10 1012.9 1012.7 0.0
24/09:00pm 20.1 16.9 9.9 52 5.5 WSW 17 20 9 11 1012.7 1012.5 0.0
24/08:30pm 20.4 17.8 9.3 49 5.9 WSW 13 17 7 9 1012.5 1012.3 0.0
24/08:00pm 21.7 18.2 8.6 43 6.9 WSW 17 22 9 12 1012.3 1012.1 0.0
24/07:30pm 21.7 18.2 8.9 44 6.8 WSW 17 24 9 13 1011.9 1011.7 0.0
24/07:00pm 23.2 19.7 8.9 40 7.7 W 17 28 9 15 1011.6 1011.4 0.0
24/06:30pm 22.9 18.1 9.0 41 7.5 WSW 24 30 13 16 1011.6 1011.4 0.0
24/06:00pm 22.4 18.6 9.2 43 7.1 W 19 32 10 17 1011.6 1011.4 0.0
24/05:30pm 24.0 20.7 9.6 40 7.9 WSW 17 30 9 16 1011.4 1011.2 0.0
24/05:00pm 24.0 22.4 11.7 46 7.0 WNW 11 20 6 11 1011.4 1011.2 0.0
24/04:30pm 22.9 19.8 9.0 41 7.5 NW 15 28 8 15 1011.6 1011.4 0.0
24/04:00pm 22.3 18.2 8.8 42 7.2 WNW 20 30 11 16 1011.9 1011.7 0.0
24/03:30pm 21.9 18.5 7.7 40 7.4 WNW 15 24 8 13 1012.0 1011.8 0.0
24/03:00pm 21.4 19.3 8.3 43 6.9 W 9 17 5 9 1012.2 1012.0 0.0
24/02:30pm 21.4 18.4 7.6 41 7.2 NW 13 20 7 11 1012.1 1011.9 0.0
24/02:00pm 21.2 17.2 8.1 43 6.9 WSW 19 30 10 16 1012.3 1012.1 0.0
24/01:30pm 21.5 16.6 8.4 43 6.9 W 24 33 13 18 1012.4 1012.2 0.0
24/01:00pm 21.4 17.8 8.3 43 6.9 W 17 28 9 15 1012.4 1012.2 0.0
24/12:30pm 20.4 16.0 6.4 40 7.1 NW 19 28 10 15 1012.5 1012.3 0.0
24/12:00pm 19.9 17.3 7.6 45 6.3 WSW 11 20 6 11 1012.6 1012.4 0.0
24/11:30am 20.4 16.4 8.1 45 6.4 NW 19 30 10 16 1012.3 1012.1 0.0
24/11:00am 19.6 14.7 8.3 48 5.9 WNW 24 32 13 17 1012.3 1012.1 0.0
24/10:30am 19.2 14.9 7.9 48 5.8 WNW 20 30 11 16 1012.2 1012.0 0.0
24/10:00am 17.5 12.7 7.5 52 5.1 WNW 22 32 12 17 1012.0 1011.8 0.0
24/09:30am 17.0 12.2 7.4 53 4.8 NW 22 33 12 18 1011.6 1011.4 0.0
24/09:00am 16.2 11.9 6.9 54 4.6 NNW 19 26 10 14 1011.4 1011.2 0.4
24/08:30am 15.1 11.1 6.7 57 4.1 NNW 17 24 9 13 1011.0 1010.8 0.4
24/08:00am 13.7 10.5 6.8 63 3.4 N 13 17 7 9 1010.8 1010.6 0.4
24/07:30am 12.7 9.0 6.5 66 3.0 N 15 20 8 11 1010.3 1010.1 0.4
24/07:00am 11.8 8.9 6.3 69 2.6 N 11 19 6 10 1009.8 1009.6 0.4
24/06:30am 12.7 8.5 5.6 62 3.3 NNW 17 24 9 13 1009.2 1009.0 0.4
24/06:00am 11.9 8.5 5.8 66 2.9 NNW 13 19 7 10 1008.8 1008.6 0.4
24/05:30am 12.4 8.2 5.8 64 3.1 NNW 17 22 9 12 1008.4 1008.2 0.4
24/05:00am 12.7 8.5 5.8 63 3.3 NW 17 22 9 12 1008.3 1008.1 0.4
24/04:30am 13.2 9.0 5.9 61 3.5 NNW 17 24 9 13 1008.0 1007.8 0.4
24/04:00am 12.5 9.1 6.1 65 3.0 NNW 13 17 7 9 1007.9 1007.6 0.4
24/03:30am 11.9 8.6 6.4 69 2.6 NNW 13 19 7 10 1007.8 1007.5 0.4
24/03:00am 11.2 7.6 6.9 75 2.1 N 15 17 8 9 1007.9 1007.6 0.4
24/02:30am 11.3 7.8 7.0 75 2.1 NNW 15 17 8 9 1008.0 1007.8 0.4
24/02:00am 11.5 8.8 7.4 76 2.0 N 11 13 6 7 1008.0 1007.8 0.4
24/01:30am 11.8 9.5 7.5 75 2.1 N 9 11 5 6 1008.0 1007.8 0.4
24/01:00am 12.6 10.1 6.4 66 3.0 NW 9 13 5 7 1007.9 1007.6 0.4
24/12:30am 12.9 10.4 6.7 66 3.0 WSW 9 11 5 6 1007.9 1007.6 0.4
24/12:00am 13.1 9.6 7.1 67 2.9 WSW 15 19 8 10 1007.6 1007.3 0.4
 
Date/Time
EDT
Temp
°C
App
Temp
°C
Dew
Point
°C
Rel
Hum
%
Delta-T
°C
Wind Press
QNH
hPa
Press
MSL
hPa
Rain since
9am
mm
Dir  Spd
km/h
Gust
km/h
Spd
kts
Gust
kts
23/11:30pm 13.7 11.6 6.6 62 3.4 WSW 7 9 4 5 1007.4 1007.1 0.4
23/11:00pm 13.4 9.9 7.2 66 3.0 WSW 15 19 8 10 1007.0 1006.7 0.4
23/10:30pm 14.2 10.3 7.0 62 3.5 WSW 17 24 9 13 1006.6 1006.3 0.4
23/10:00pm 15.6 11.6 6.6 55 4.4 SW 17 22 9 12 1006.2 1005.9 0.4
23/09:30pm 15.8 12.1 6.5 54 4.6 WSW 15 19 8 10 1005.5 1005.2 0.4
23/09:00pm 16.3 11.8 7.0 54 4.6 WSW 20 28 11 15 1005.0 1004.7 0.4
23/08:30pm 17.2 11.6 7.3 52 5.0 WSW 26 37 14 20 1004.3 1004.0 0.4
23/08:00pm 19.5 13.0 4.8 38 7.2 W 28 43 15 23 1003.5 1003.2 0.4
23/07:46pm 19.5 12.1 4.8 38 7.1 WSW 33 54 18 29 1003.2 1002.9 0.4
23/07:30pm 19.7 12.0 5.4 39 7.0 W 35 46 19 25 1002.8 1002.5 0.4
23/07:00pm 20.2 12.4 6.5 41 6.9 WSW 37 46 20 25 1002.0 1001.7 0.4
23/06:30pm 21.0 14.4 7.6 42 6.9 WSW 32 44 17 24 1001.2 1001.0 0.4
23/06:00pm 21.1 14.4 8.0 43 6.9 W 33 46 18 25 1000.6 1000.4 0.4
23/05:54pm 20.9 13.7 7.5 42 6.9 W 35 54 19 29 1000.5 1000.3 0.4
23/05:30pm 21.6 15.4 9.2 45 6.6 W 32 46 17 25 1000.1 999.9 0.4
23/05:00pm 21.2 13.4 6.7 39 7.4 W 37 48 20 26 999.7 999.5 0.4
23/04:43pm 22.4 14.8 7.4 38 7.8 WNW 37 61 20 33 999.3 999.1 0.4
23/04:30pm 22.5 16.7 9.3 43 7.1 WNW 30 44 16 24 999.4 999.2 0.4
23/04:03pm 20.5 13.8 9.7 50 5.8 NW 35 54 19 29 999.3 999.1 0.4
23/04:00pm 20.4 12.9 9.3 49 5.9 NW 39 54 21 29 999.3 999.1 0.4
23/03:30pm 20.9 14.9 10.1 50 5.9 NW 32 50 17 27 998.8 998.6 0.4
23/03:00pm 20.5 13.7 9.1 48 6.1 WNW 35 56 19 30 998.8 998.6 0.4
23/02:42pm 20.7 14.7 10.2 51 5.7 WNW 32 50 17 27 998.6 998.4 0.4
23/02:30pm 20.4 13.8 9.9 51 5.7 WNW 35 50 19 27 998.5 998.3 0.4
23/02:00pm 18.8 11.4 9.8 56 4.8 NW 39 57 21 31 998.1 997.9 0.4
23/01:42pm 18.9 12.3 11.5 62 4.1 NW 37 59 20 32 998.3 998.1 0.4
23/01:30pm 18.3 12.6 11.8 66 3.6 NW 33 48 18 26 998.1 997.9 0.4
23/01:02pm 19.3 12.6 11.1 59 4.5 NNW 37 56 20 30 997.6 997.4 0.4
23/01:00pm 19.2 12.6 11.3 60 4.4 NNW 37 54 20 29 997.6 997.4 0.4
23/12:30pm 19.5 13.3 11.5 60 4.4 NNW 35 59 19 32 997.3 997.1 0.4
23/12:11pm 19.3 13.6 13.0 67 3.6 NW 35 54 19 29 997.5 997.3 0.4
23/12:00pm 19.0 12.5 11.8 63 4.0 NW 37 52 20 28 997.3 997.1 0.4
23/11:30am 18.4 13.1 12.6 69 3.2 NNW 32 52 17 28 997.2 997.0 0.4
23/11:00am 17.5 12.4 11.8 69 3.2 NNW 30 52 16 28 996.8 996.5 0.4
23/10:30am 16.2 14.1 13.5 84 1.5 N 17 26 9 14 997.5 997.3 0.4
23/10:00am 15.2 12.2 12.7 85 1.4 NNW 20 28 11 15 997.6 997.4 0.4
23/09:30am 14.7 12.2 12.4 86 1.3 NW 17 24 9 13 997.7 997.5 0.2
23/09:00am 14.6 13.0 12.8 89 1.0 NNW 13 17 7 9 997.1 996.9 21.8
23/08:30am 14.6 14.2 13.1 91 0.8 NW 7 15 4 8 997.0 996.8 21.8
23/08:00am 14.2 12.7 13.2 94 0.6 NW 13 17 7 9 996.9 996.6 21.4
23/07:30am 13.8 12.8 13.3 97 0.3 N 11 17 6 9 996.4 996.1 20.4
23/07:00am 13.5 12.8 13.2 98 0.2 NNE 9 15 5 8 996.2 995.9 20.0
23/06:30am 13.4 11.5 13.1 98 0.2 NNE 15 20 8 11 996.1 995.8 19.6
23/06:12am 13.3 12.2 13.1 99 0.1 NNE 11 17 6 9 995.8 995.5 19.2
23/06:07am 13.3 12.2 13.1 99 0.1 NNE 11 15 6 8 996.1 995.8 19.0
23/06:00am 13.2 12.4 13.0 99 0.1 NE 9 13 5 7 996.2 995.9 18.6
23/05:55am 13.2 12.4 13.0 99 0.1 NE 9 17 5 9 996.4 996.1 18.2
23/05:53am 13.2 12.1 13.0 99 0.1 NE 11 17 6 9 996.3 996.0 18.2
23/05:30am 12.9 11.3 12.7 99 0.1 NE 13 17 7 9 997.0 996.8 17.0
23/05:00am 12.7 11.7 12.4 98 0.2 SW 9 13 5 7 997.1 996.9 15.8
23/04:53am 12.6 12.6 12.3 98 0.2 WSW 4 11 2 6 997.2 997.0 15.6
23/04:30am 12.5 11.4 12.0 97 0.3 WSW 9 13 5 7 997.8 997.6 14.4
23/04:17am 12.6 10.8 12.1 97 0.3 WSW 13 17 7 9 997.9 997.7 13.2
23/04:00am 12.8 10.7 12.5 98 0.2 WSW 15 17 8 9 997.6 997.4 12.6
23/03:30am 12.9 11.3 12.7 99 0.1 WSW 13 17 7 9 997.8 997.6 12.2
23/03:00am 12.7 10.6 12.5 99 0.1 SW 15 20 8 11 997.8 997.6 11.8
23/02:30am 12.8 10.4 12.5 98 0.2 SW 17 20 9 11 998.4 998.2 11.4
23/02:05am 12.8 12.3 12.5 98 0.2 SW 7 11 4 6 998.5 998.3 11.2
23/02:00am 12.8 12.4 12.5 98 0.2 SW 6 11 3 6 998.5 998.3 11.2
23/01:55am 12.7 11.7 12.4 98 0.2 SW 9 20 5 11 998.7 998.5 11.2
23/01:30am 13.1 9.4 12.8 98 0.2 SW 24 28 13 15 999.0 998.8 10.8
23/01:02am 14.8 13.4 14.5 98 0.2 SSE 15 19 8 10 999.2 999.0 10.0
23/01:00am 14.8 13.4 14.5 98 0.2 SSE 15 19 8 10 999.2 999.0 10.0
23/12:52am 14.8 13.4 14.5 98 0.2 S 15 20 8 11 999.6 999.4 9.4
23/12:30am 15.5 15.0 15.0 97 0.3 S 11 15 6 8 999.6 999.4 7.2
23/12:00am 15.2 15.0 14.6 96 0.3 SE 9 15 5 8 999.5 999.3 5.6
 
Date/Time
EDT
Temp
°C
App
Temp
°C
Dew
Point
°C
Rel
Hum
%
Delta-T
°C
Wind Press
QNH
hPa
Press
MSL
hPa
Rain since
9am
mm
Dir  Spd
km/h
Gust
km/h
Spd
kts
Gust
kts
22/11:52pm 15.4 15.2 14.8 96 0.3 SSE 9 13 5 7 999.7 999.5 5.2
22/11:32pm 15.2 15.5 14.4 95 0.5 SSE 6 7 3 4 1001.1 1000.9 3.6
22/11:30pm 15.4 15.7 14.6 95 0.5 SSE 6 9 3 5 1001.2 1001.0 3.4
22/11:13pm 15.3 14.2 14.3 94 0.6 SSW 13 20 7 11 1001.3 1001.1 1.8
22/11:00pm 15.4 12.6 14.3 93 0.6 SW 22 30 12 16 1001.8 1001.6 1.4

Latest Capital City Observations: Canberra | Sydney | Melbourne | Brisbane | Adelaide | Perth | Hobart | Darwin

Other formats

Comma delimited format used in spreadsheet applications
http://www.bom.gov.au/fwo/IDV60901/IDV60901.95866.axf

JavaScript Object Notation format (JSON) in row-major order
http://www.bom.gov.au/fwo/IDV60901/IDV60901.95866.json

Data quality

Most of these data are generated automatically and are frequently updated. Quality checks on data are not normally performed. It is possible for incorrect values to appear. Refer to information at About Latest Weather Observations and please check the disclaimer before using these data.